Flight Track Log - Related Links

Times and Time Zones

All times are in EDT time to prevent confusion due to time zone crossing. See the RPA4956 flight status page for this flight to view local times or setup timezone preferences in your user account.

Time Position Orientation Groundspeed Altitude Reporting Facility
EDT Latitude Longitude Course Direction KTS MPH feet Rate Location/Type
07:56AM 39.0500 -77.5167 78° East 217 250 7,500  Level Potomac TRACON
07:57AM 39.1000 -77.4667 38° Northeast 274 315 9,000 750 Climbing Potomac TRACON
07:58AM 39.1500 -77.3833 52° Northeast 292 336 9,000  Level Potomac TRACON
07:58AM 39.1833 -77.3167 57° Northeast 296 341 9,000 522 Level Potomac TRACON
08:00AM 39.0510 -76.8105 78° East  Level FlightAware Approximate
08:00AM 39.2333 -77.2167 57° Northeast 312 359 10,000  Level Potomac TRACON
08:01AM 39.0695 -76.7014 78° East  Level FlightAware Approximate
08:01AM 39.2833 -77.1000 61° Northeast 330 380 10,300  Level Potomac TRACON
08:02AM 39.2667 -76.9833 100° East 342 394 11,000 368 Climbing Potomac TRACON
08:03AM 39.2500 -76.8833 102° East 345 397 11,000  Level Potomac TRACON
08:03AM 39.2333 -76.7667 100° East 340 391 11,000  Level Potomac TRACON
08:04AM 39.2167 -76.6500 100° East 429 494 11,000  Level Potomac TRACON
08:05AM 39.2000 -76.5500 102° East 336 387 11,000  Level Potomac TRACON
08:06AM 39.2167 -76.4000 82° East 339 390 11,000  Level Potomac TRACON
08:07AM 39.2500 -76.3167 63° Northeast 333 383 11,000  Level Potomac TRACON
08:08AM 39.3000 -76.2000 61° Northeast 331 381 11,000  Level Potomac TRACON
08:10AM 39.3833 -76.0333 57° Northeast 335 386 11,000  Level Philadelphia TRACON
08:11AM 39.4333 -75.9500 52° Northeast 334 384 11,000  Level Philadelphia TRACON
08:12AM 39.4833 -75.8500 57° Northeast 343 395 11,000  Level Philadelphia TRACON
08:13AM 39.5500 -75.7500 49° Northeast 331 381 11,000  Level Philadelphia TRACON
08:14AM 39.6167 -75.6833 38° Northeast 333 383 11,000  Level Philadelphia TRACON
08:15AM 39.6833 -75.6000 44° Northeast 335 386 11,000  Level Philadelphia TRACON
08:16AM 39.7167 -75.4667 72° East 340 391 11,000  Level Philadelphia TRACON
08:17AM 39.7500 -75.3667 67° East 340 391 11,000  Level Philadelphia TRACON
08:18AM 39.7833 -75.2667 67° East 338 389 11,000 -389 Level Philadelphia TRACON
08:19AM 39.8000 -75.1667 78° East 293 337 10,300 -898 Descending Philadelphia TRACON
08:20AM 39.8333 -75.0500 70° East 291 335 9,100 -1,000 Descending Philadelphia TRACON
08:21AM 39.8667 -74.9667 62° Northeast 274 315 8,200 -1,000 Descending Philadelphia TRACON
08:22AM 39.9167 -74.9000 46° Northeast 269 310 7,200 -477 Descending Philadelphia TRACON
08:23AM 39.9914 -74.8003 46° Northeast 267 307 7,000 -78 Descending New York Center
08:24AM 40.0511 -74.7119 49° Northeast 268 308 7,000  Level New York Center
08:26AM 40.1003 -74.6406 48° Northeast 264 304 7,000  Level New York Center
08:27AM 40.1678 -74.6044 22° Northeast 262 302 7,000  Level New York Center
08:28AM 40.2400 -74.5689 21° North 263 303 7,000 -192 Level New York Center
08:29AM 40.3167 -74.5333 19° North 260 299 6,600 -683 Descending New York TRACON
08:30AM 40.3833 -74.5000 21° North 250 288 5,600 -1,000 Descending New York TRACON
08:31AM 40.4333 -74.4833 14° North 239 275 4,700 -843 Descending New York TRACON
08:32AM 40.5000 -74.4500 21° North 225 259 3,900 -531 Descending New York TRACON
08:34AM 40.6167 -74.3881 22° Northeast 216 249 3,000 -312 Descending New York Center
08:35AM 40.6667 -74.3500 30° Northeast 220 253 3,000 -389 Level New York TRACON
08:36AM 40.7000 -74.3000 49° Northeast 215 247 2,300 -496 Descending New York TRACON
08:37AM 40.7333 -74.2500 49° Northeast 164 189 2,000 -105 Descending New York TRACON
08:37AM 40.7500 -74.2000 66° East 172 198 2,100  Climbing New York TRACON
08:38AM 40.7500 -74.1500 90° East 173 199 2,000 -250 Descending New York TRACON
08:39AM 40.7333 -74.0833 108° East 183 211 1,600 -450 Descending New York TRACON
08:40AM 40.7000 -74.1000 201° Southwest 151 174 1,100 -632 Descending New York TRACON
08:41AM 40.7000 -74.1333 270° West 116 133 400 -700 Descending New York TRACON

Login

Don't have an account? Register now (free) for customized features, flight alerts, and more!